sensor_id;sensor_type;location;lat;lon;timestamp;temperature;humidity
69626;DHT22;56847;51.984;5.088;2022-10-15T05:05:27;14.60;82.50
69626;DHT22;56847;51.984;5.088;2022-10-15T05:08:01;14.60;82.60
69626;DHT22;56847;51.984;5.088;2022-10-15T05:10:43;14.70;82.70
69626;DHT22;56847;51.984;5.088;2022-10-15T05:13:11;14.80;82.70
69626;DHT22;56847;51.984;5.088;2022-10-15T05:15:40;14.80;82.70
69626;DHT22;56847;51.984;5.088;2022-10-15T05:18:08;14.90;82.60
69626;DHT22;56847;51.984;5.088;2022-10-15T05:20:49;14.90;82.60
69626;DHT22;56847;51.984;5.088;2022-10-15T05:23:18;14.90;82.60
69626;DHT22;56847;51.984;5.088;2022-10-15T05:26:00;15.00;82.60
69626;DHT22;56847;51.984;5.088;2022-10-15T05:28:28;15.00;82.60
69626;DHT22;56847;51.984;5.088;2022-10-15T05:30:56;15.10;82.70
69626;DHT22;56847;51.984;5.088;2022-10-15T05:33:23;15.10;82.70
69626;DHT22;56847;51.984;5.088;2022-10-15T05:35:50;15.10;82.80
69626;DHT22;56847;51.984;5.088;2022-10-15T05:38:20;15.10;82.70
69626;DHT22;56847;51.984;5.088;2022-10-15T05:40:48;15.20;82.60
69626;DHT22;56847;51.984;5.088;2022-10-15T05:43:19;15.20;82.60
69626;DHT22;56847;51.984;5.088;2022-10-15T05:45:47;15.20;82.60
69626;DHT22;56847;51.984;5.088;2022-10-15T05:48:14;15.30;82.60
69626;DHT22;56847;51.984;5.088;2022-10-15T05:50:41;15.30;82.60
69626;DHT22;56847;51.984;5.088;2022-10-15T05:53:13;15.30;82.60
69626;DHT22;56847;51.984;5.088;2022-10-15T05:55:43;15.30;82.40
69626;DHT22;56847;51.984;5.088;2022-10-15T05:58:11;15.30;82.40
69626;DHT22;56847;51.984;5.088;2022-10-15T06:00:38;15.40;82.40
69626;DHT22;56847;51.984;5.088;2022-10-15T06:03:13;15.40;82.40
69626;DHT22;56847;51.984;5.088;2022-10-15T06:05:40;15.40;82.30
69626;DHT22;56847;51.984;5.088;2022-10-15T06:08:07;15.40;82.40
69626;DHT22;56847;51.984;5.088;2022-10-15T06:10:35;15.40;82.40
69626;DHT22;56847;51.984;5.088;2022-10-15T06:13:03;15.50;82.30
69626;DHT22;56847;51.984;5.088;2022-10-15T06:15:32;15.50;82.30
69626;DHT22;56847;51.984;5.088;2022-10-15T06:18:00;15.50;82.30
69626;DHT22;56847;51.984;5.088;2022-10-15T06:20:27;15.50;82.30
69626;DHT22;56847;51.984;5.088;2022-10-15T06:22:58;15.50;82.20
69626;DHT22;56847;51.984;5.088;2022-10-15T06:25:25;15.50;82.30
69626;DHT22;56847;51.984;5.088;2022-10-15T06:27:53;15.50;82.30
69626;DHT22;56847;51.984;5.088;2022-10-15T06:30:23;15.50;82.40
69626;DHT22;56847;51.984;5.088;2022-10-15T06:32:51;15.60;82.50
69626;DHT22;56847;51.984;5.088;2022-10-15T06:35:20;15.60;82.40
69626;DHT22;56847;51.984;5.088;2022-10-15T06:37:47;15.60;82.40
69626;DHT22;56847;51.984;5.088;2022-10-15T06:40:14;15.70;82.40
69626;DHT22;56847;51.984;5.088;2022-10-15T06:42:42;15.70;82.20
69626;DHT22;56847;51.984;5.088;2022-10-15T06:45:10;15.70;82.10
69626;DHT22;56847;51.984;5.088;2022-10-15T06:47:39;15.80;82.10
69626;DHT22;56847;51.984;5.088;2022-10-15T06:50:07;15.80;82.10
69626;DHT22;56847;51.984;5.088;2022-10-15T06:52:35;15.80;82.00
69626;DHT22;56847;51.984;5.088;2022-10-15T06:55:03;15.80;82.10
69626;DHT22;56847;51.984;5.088;2022-10-15T06:57:30;15.80;82.10
69626;DHT22;56847;51.984;5.088;2022-10-15T06:59:57;15.80;82.00
69626;DHT22;56847;51.984;5.088;2022-10-15T07:02:26;15.90;82.10
69626;DHT22;56847;51.984;5.088;2022-10-15T07:04:54;15.90;82.10
69626;DHT22;56847;51.984;5.088;2022-10-15T07:07:21;15.80;82.10
69626;DHT22;56847;51.984;5.088;2022-10-15T07:09:48;15.90;82.10
69626;DHT22;56847;51.984;5.088;2022-10-15T07:12:18;15.90;82.10
69626;DHT22;56847;51.984;5.088;2022-10-15T07:14:48;15.90;82.00
69626;DHT22;56847;51.984;5.088;2022-10-15T07:17:15;16.00;82.00
69626;DHT22;56847;51.984;5.088;2022-10-15T07:19:42;16.00;82.00
69626;DHT22;56847;51.984;5.088;2022-10-15T07:22:10;16.10;81.70
69626;DHT22;56847;51.984;5.088;2022-10-15T07:24:37;16.10;81.80
69626;DHT22;56847;51.984;5.088;2022-10-15T07:27:04;16.10;81.90
69626;DHT22;56847;51.984;5.088;2022-10-15T07:29:44;16.20;81.80
69626;DHT22;56847;51.984;5.088;2022-10-15T07:32:10;16.30;81.70
69626;DHT22;56847;51.984;5.088;2022-10-15T07:34:37;16.30;81.70
69626;DHT22;56847;51.984;5.088;2022-10-15T07:37:04;16.40;81.60
69626;DHT22;56847;51.984;5.088;2022-10-15T07:39:31;16.50;81.40
69626;DHT22;56847;51.984;5.088;2022-10-15T07:42:03;16.60;81.30
69626;DHT22;56847;51.984;5.088;2022-10-15T07:44:30;16.60;81.20
69626;DHT22;56847;51.984;5.088;2022-10-15T07:46:58;16.60;80.90
69626;DHT22;56847;51.984;5.088;2022-10-15T07:49:25;16.60;80.80
69626;DHT22;56847;51.984;5.088;2022-10-15T07:51:52;16.60;80.70
69626;DHT22;56847;51.984;5.088;2022-10-15T07:54:20;16.60;80.80
69626;DHT22;56847;51.984;5.088;2022-10-15T07:56:47;16.60;80.60
69626;DHT22;56847;51.984;5.088;2022-10-15T07:59:14;16.60;80.70
69626;DHT22;56847;51.984;5.088;2022-10-15T08:01:41;16.70;80.60
69626;DHT22;56847;51.984;5.088;2022-10-15T08:04:12;16.60;80.40
69626;DHT22;56847;51.984;5.088;2022-10-15T08:06:41;16.60;80.50
69626;DHT22;56847;51.984;5.088;2022-10-15T08:09:07;16.60;80.50
69626;DHT22;56847;51.984;5.088;2022-10-15T08:11:34;16.70;80.60
69626;DHT22;56847;51.984;5.088;2022-10-15T08:14:08;16.70;80.50
69626;DHT22;56847;51.984;5.088;2022-10-15T08:16:35;16.70;80.40
69626;DHT22;56847;51.984;5.088;2022-10-15T08:19:02;16.80;80.60
69626;DHT22;56847;51.984;5.088;2022-10-15T08:21:29;16.80;80.60
69626;DHT22;56847;51.984;5.088;2022-10-15T08:23:56;16.90;80.80
69626;DHT22;56847;51.984;5.088;2022-10-15T08:26:32;17.10;81.00
69626;DHT22;56847;51.984;5.088;2022-10-15T08:28:59;17.20;80.50
69626;DHT22;56847;51.984;5.088;2022-10-15T08:31:26;17.20;80.10
69626;DHT22;56847;51.984;5.088;2022-10-15T08:33:53;17.20;80.00
69626;DHT22;56847;51.984;5.088;2022-10-15T08:36:20;17.20;80.30
69626;DHT22;56847;51.984;5.088;2022-10-15T08:38:47;17.40;80.50
69626;DHT22;56847;51.984;5.088;2022-10-15T08:41:36;17.60;80.10
69626;DHT22;56847;51.984;5.088;2022-10-15T08:44:04;17.70;79.70
69626;DHT22;56847;51.984;5.088;2022-10-15T08:46:39;17.70;79.10
69626;DHT22;56847;51.984;5.088;2022-10-15T08:49:58;17.80;79.30
69626;DHT22;56847;51.984;5.088;2022-10-15T08:52:24;17.90;79.30
69626;DHT22;56847;51.984;5.088;2022-10-15T08:54:52;18.00;78.80
69626;DHT22;56847;51.984;5.088;2022-10-15T09:03:14;17.80;78.20
69626;DHT22;56847;51.984;5.088;2022-10-15T09:05:49;17.90;78.50
69626;DHT22;56847;51.984;5.088;2022-10-15T09:09:00;18.00;78.50
69626;DHT22;56847;51.984;5.088;2022-10-15T09:11:36;18.10;78.10
69626;DHT22;56847;51.984;5.088;2022-10-15T09:14:06;18.20;77.90
69626;DHT22;56847;51.984;5.088;2022-10-15T09:16:36;18.30;77.70
69626;DHT22;56847;51.984;5.088;2022-10-15T09:19:14;18.30;77.30
69626;DHT22;56847;51.984;5.088;2022-10-15T09:21:42;18.20;77.10
69626;DHT22;56847;51.984;5.088;2022-10-15T09:24:13;18.20;77.30
69626;DHT22;56847;51.984;5.088;2022-10-15T09:26:59;18.20;77.20
69626;DHT22;56847;51.984;5.088;2022-10-15T09:29:50;18.20;77.20
69626;DHT22;56847;51.984;5.088;2022-10-15T09:35:02;18.10;77.20
69626;DHT22;56847;51.984;5.088;2022-10-15T09:37:53;18.10;77.50
69626;DHT22;56847;51.984;5.088;2022-10-15T09:43:30;18.10;77.10
69626;DHT22;56847;51.984;5.088;2022-10-15T09:46:02;18.00;77.40
69626;DHT22;56847;51.984;5.088;2022-10-15T09:48:40;18.00;78.00
69626;DHT22;56847;51.984;5.088;2022-10-15T09:51:31;18.00;78.10
69626;DHT22;56847;51.984;5.088;2022-10-15T09:54:02;18.00;78.40
69626;DHT22;56847;51.984;5.088;2022-10-15T09:56:47;18.10;78.70
69626;DHT22;56847;51.984;5.088;2022-10-15T09:59:20;18.20;78.60
69626;DHT22;56847;51.984;5.088;2022-10-15T10:04:30;18.10;78.60
69626;DHT22;56847;51.984;5.088;2022-10-15T10:07:00;18.10;78.80
69626;DHT22;56847;51.984;5.088;2022-10-15T10:09:31;18.00;78.90
69626;DHT22;56847;51.984;5.088;2022-10-15T10:12:05;18.00;79.10
69626;DHT22;56847;51.984;5.088;2022-10-15T10:14:44;18.00;79.30
69626;DHT22;56847;51.984;5.088;2022-10-15T10:19:44;18.10;79.50
69626;DHT22;56847;51.984;5.088;2022-10-15T10:22:19;18.20;79.30
69626;DHT22;56847;51.984;5.088;2022-10-15T10:24:47;18.10;79.30
69626;DHT22;56847;51.984;5.088;2022-10-15T10:27:21;18.10;79.10
69626;DHT22;56847;51.984;5.088;2022-10-15T10:29:53;18.10;79.20
69626;DHT22;56847;51.984;5.088;2022-10-15T10:32:28;18.00;79.30
69626;DHT22;56847;51.984;5.088;2022-10-15T10:35:02;18.00;79.40
69626;DHT22;56847;51.984;5.088;2022-10-15T10:37:41;18.00;79.50
69626;DHT22;56847;51.984;5.088;2022-10-15T10:40:33;18.00;79.50
69626;DHT22;56847;51.984;5.088;2022-10-15T10:43:23;17.90;79.40
69626;DHT22;56847;51.984;5.088;2022-10-15T10:46:15;17.80;79.70
69626;DHT22;56847;51.984;5.088;2022-10-15T10:48:52;17.80;80.10
69626;DHT22;56847;51.984;5.088;2022-10-15T10:51:26;17.80;80.20
69626;DHT22;56847;51.984;5.088;2022-10-15T10:54:02;17.80;80.30
69626;DHT22;56847;51.984;5.088;2022-10-15T10:56:43;17.80;80.50
69626;DHT22;56847;51.984;5.088;2022-10-15T10:59:15;17.80;80.80
69626;DHT22;56847;51.984;5.088;2022-10-15T11:01:49;17.90;80.90
69626;DHT22;56847;51.984;5.088;2022-10-15T11:04:26;17.90;80.90
69626;DHT22;56847;51.984;5.088;2022-10-15T11:13:01;18.00;80.90
69626;DHT22;56847;51.984;5.088;2022-10-15T11:15:29;18.00;81.00
69626;DHT22;56847;51.984;5.088;2022-10-15T11:27:04;18.00;81.00
69626;DHT22;56847;51.984;5.088;2022-10-15T11:32:48;18.10;81.40
69626;DHT22;56847;51.984;5.088;2022-10-15T11:35:47;18.10;81.40
69626;DHT22;56847;51.984;5.088;2022-10-15T11:38:42;18.10;81.20
69626;DHT22;56847;51.984;5.088;2022-10-15T11:47:08;18.10;81.70
69626;DHT22;56847;51.984;5.088;2022-10-15T11:57:19;18.20;82.10
69626;DHT22;56847;51.984;5.088;2022-10-15T12:00:01;18.20;82.30
69626;DHT22;56847;51.984;5.088;2022-10-15T12:02:38;18.20;82.40
69626;DHT22;56847;51.984;5.088;2022-10-15T12:05:06;18.20;82.20
69626;DHT22;56847;51.984;5.088;2022-10-15T12:07:41;18.20;82.30
69626;DHT22;56847;51.984;5.088;2022-10-15T12:12:49;18.20;82.70
69626;DHT22;56847;51.984;5.088;2022-10-15T12:15:38;18.20;83.20
69626;DHT22;56847;51.984;5.088;2022-10-15T12:18:42;18.30;83.30
69626;DHT22;56847;51.984;5.088;2022-10-15T12:32:36;18.50;82.80
69626;DHT22;56847;51.984;5.088;2022-10-15T12:37:43;18.70;83.60
69626;DHT22;56847;51.984;5.088;2022-10-15T12:42:58;19.00;82.60
69626;DHT22;56847;51.984;5.088;2022-10-15T12:45:38;19.00;82.20
69626;DHT22;56847;51.984;5.088;2022-10-15T12:50:45;19.00;82.10
69626;DHT22;56847;51.984;5.088;2022-10-15T12:53:31;19.00;81.80
69626;DHT22;56847;51.984;5.088;2022-10-15T12:58:52;19.10;81.90
69626;DHT22;56847;51.984;5.088;2022-10-15T13:11:48;19.20;80.40
69626;DHT22;56847;51.984;5.088;2022-10-15T13:14:41;19.30;80.00
69626;DHT22;56847;51.984;5.088;2022-10-15T13:17:18;19.30;80.00
69626;DHT22;56847;51.984;5.088;2022-10-15T13:19:53;19.20;79.90
69626;DHT22;56847;51.984;5.088;2022-10-15T13:22:29;19.20;79.60
69626;DHT22;56847;51.984;5.088;2022-10-15T13:25:01;19.10;79.90
69626;DHT22;56847;51.984;5.088;2022-10-15T13:27:35;19.00;79.70
69626;DHT22;56847;51.984;5.088;2022-10-15T13:30:11;19.00;80.00
69626;DHT22;56847;51.984;5.088;2022-10-15T13:32:44;18.90;80.20
69626;DHT22;56847;51.984;5.088;2022-10-15T13:35:20;19.00;80.40
69626;DHT22;56847;51.984;5.088;2022-10-15T13:37:49;19.10;80.30
69626;DHT22;56847;51.984;5.088;2022-10-15T13:40:27;19.10;80.20
69626;DHT22;56847;51.984;5.088;2022-10-15T13:43:23;19.10;79.90
69626;DHT22;56847;51.984;5.088;2022-10-15T13:45:55;19.00;79.90
69626;DHT22;56847;51.984;5.088;2022-10-15T13:48:29;19.10;80.50
69626;DHT22;56847;51.984;5.088;2022-10-15T13:51:01;19.20;80.70
69626;DHT22;56847;51.984;5.088;2022-10-15T13:53:33;19.40;80.60
69626;DHT22;56847;51.984;5.088;2022-10-15T13:56:03;19.50;80.50
69626;DHT22;56847;51.984;5.088;2022-10-15T13:58:33;19.60;79.30
69626;DHT22;56847;51.984;5.088;2022-10-15T14:01:17;19.60;79.20
69626;DHT22;56847;51.984;5.088;2022-10-15T14:03:50;19.60;78.70
69626;DHT22;56847;51.984;5.088;2022-10-15T14:06:35;19.60;78.20
69626;DHT22;56847;51.984;5.088;2022-10-15T14:09:26;19.60;78.40
69626;DHT22;56847;51.984;5.088;2022-10-15T14:11:54;19.70;77.30
69626;DHT22;56847;51.984;5.088;2022-10-15T14:14:40;19.80;77.30
69626;DHT22;56847;51.984;5.088;2022-10-15T14:19:52;20.00;75.30
69626;DHT22;56847;51.984;5.088;2022-10-15T14:22:39;20.00;75.10
69626;DHT22;56847;51.984;5.088;2022-10-15T14:25:08;19.80;73.40
69626;DHT22;56847;51.984;5.088;2022-10-15T14:27:36;19.60;73.70
69626;DHT22;56847;51.984;5.088;2022-10-15T14:30:13;19.50;72.50
69626;DHT22;56847;51.984;5.088;2022-10-15T14:32:46;19.30;71.70
69626;DHT22;56847;51.984;5.088;2022-10-15T14:35:32;19.10;71.90
69626;DHT22;56847;51.984;5.088;2022-10-15T14:38:15;19.00;70.80
69626;DHT22;56847;51.984;5.088;2022-10-15T14:41:03;18.90;71.10
69626;DHT22;56847;51.984;5.088;2022-10-15T14:43:37;18.70;71.30
69626;DHT22;56847;51.984;5.088;2022-10-15T14:46:05;18.60;72.60
69626;DHT22;56847;51.984;5.088;2022-10-15T14:48:36;18.60;72.90
69626;DHT22;56847;51.984;5.088;2022-10-15T14:51:06;18.60;73.30
69626;DHT22;56847;51.984;5.088;2022-10-15T14:53:36;18.60;73.30
69626;DHT22;56847;51.984;5.088;2022-10-15T14:56:22;18.60;73.60
69626;DHT22;56847;51.984;5.088;2022-10-15T14:58:54;18.60;73.50
69626;DHT22;56847;51.984;5.088;2022-10-15T15:01:22;18.60;73.70
69626;DHT22;56847;51.984;5.088;2022-10-15T15:03:52;18.60;73.80
69626;DHT22;56847;51.984;5.088;2022-10-15T15:06:20;18.60;73.00
69626;DHT22;56847;51.984;5.088;2022-10-15T15:08:47;18.50;73.20
69626;DHT22;56847;51.984;5.088;2022-10-15T15:11:24;18.50;73.70
69626;DHT22;56847;51.984;5.088;2022-10-15T15:13:51;18.40;73.90
69626;DHT22;56847;51.984;5.088;2022-10-15T15:16:18;18.40;74.30
69626;DHT22;56847;51.984;5.088;2022-10-15T15:18:45;18.40;74.60
69626;DHT22;56847;51.984;5.088;2022-10-15T15:21:21;18.30;73.90
69626;DHT22;56847;51.984;5.088;2022-10-15T15:23:49;18.30;74.50
69626;DHT22;56847;51.984;5.088;2022-10-15T15:26:16;18.20;74.80
69626;DHT22;56847;51.984;5.088;2022-10-15T15:28:43;18.20;74.90
69626;DHT22;56847;51.984;5.088;2022-10-15T15:31:16;18.20;75.10
69626;DHT22;56847;51.984;5.088;2022-10-15T15:33:43;18.20;74.80
69626;DHT22;56847;51.984;5.088;2022-10-15T15:36:13;18.10;74.90
69626;DHT22;56847;51.984;5.088;2022-10-15T15:38:48;18.10;75.00
69626;DHT22;56847;51.984;5.088;2022-10-15T15:41:18;18.10;74.80
69626;DHT22;56847;51.984;5.088;2022-10-15T15:43:45;18.10;75.10
69626;DHT22;56847;51.984;5.088;2022-10-15T15:46:13;18.00;74.90
69626;DHT22;56847;51.984;5.088;2022-10-15T15:48:40;17.90;74.90
69626;DHT22;56847;51.984;5.088;2022-10-15T15:51:24;17.90;75.10
69626;DHT22;56847;51.984;5.088;2022-10-15T15:53:52;17.80;75.20
69626;DHT22;56847;51.984;5.088;2022-10-15T15:56:19;17.80;75.40
69626;DHT22;56847;51.984;5.088;2022-10-15T15:58:47;17.80;75.70
69626;DHT22;56847;51.984;5.088;2022-10-15T16:01:16;17.70;75.90
69626;DHT22;56847;51.984;5.088;2022-10-15T16:03:44;17.70;75.90
69626;DHT22;56847;51.984;5.088;2022-10-15T16:06:11;17.70;76.20
69626;DHT22;56847;51.984;5.088;2022-10-15T16:08:39;17.60;76.30
69626;DHT22;56847;51.984;5.088;2022-10-15T16:11:06;17.60;76.30
69626;DHT22;56847;51.984;5.088;2022-10-15T16:13:33;17.60;76.30
69626;DHT22;56847;51.984;5.088;2022-10-15T16:16:01;17.60;76.20
69626;DHT22;56847;51.984;5.088;2022-10-15T16:18:28;17.50;76.40
69626;DHT22;56847;51.984;5.088;2022-10-15T16:21:02;17.50;76.50
69626;DHT22;56847;51.984;5.088;2022-10-15T16:23:29;17.50;76.70
69626;DHT22;56847;51.984;5.088;2022-10-15T16:25:57;17.40;76.70
69626;DHT22;56847;51.984;5.088;2022-10-15T16:28:33;17.40;76.70
69626;DHT22;56847;51.984;5.088;2022-10-15T16:31:17;17.40;76.80
69626;DHT22;56847;51.984;5.088;2022-10-15T16:33:46;17.40;76.40
69626;DHT22;56847;51.984;5.088;2022-10-15T16:36:15;17.30;76.30
69626;DHT22;56847;51.984;5.088;2022-10-15T16:38:43;17.20;76.30
69626;DHT22;56847;51.984;5.088;2022-10-15T16:41:13;17.20;76.40
69626;DHT22;56847;51.984;5.088;2022-10-15T16:43:41;17.10;76.40
69626;DHT22;56847;51.984;5.088;2022-10-15T16:46:08;17.00;76.40
69626;DHT22;56847;51.984;5.088;2022-10-15T16:48:35;17.00;76.50
69626;DHT22;56847;51.984;5.088;2022-10-15T16:51:07;16.90;76.50
69626;DHT22;56847;51.984;5.088;2022-10-15T16:53:36;16.90;76.40
69626;DHT22;56847;51.984;5.088;2022-10-15T16:56:10;16.80;76.30
69626;DHT22;56847;51.984;5.088;2022-10-15T16:58:37;16.80;76.30
69626;DHT22;56847;51.984;5.088;2022-10-15T17:01:06;16.80;76.30
69626;DHT22;56847;51.984;5.088;2022-10-15T17:03:36;16.70;76.20
69626;DHT22;56847;51.984;5.088;2022-10-15T17:06:07;16.60;76.30
69626;DHT22;56847;51.984;5.088;2022-10-15T17:08:41;16.60;76.30
69626;DHT22;56847;51.984;5.088;2022-10-15T17:11:17;16.50;76.30
69626;DHT22;56847;51.984;5.088;2022-10-15T17:13:45;16.50;76.30
69626;DHT22;56847;51.984;5.088;2022-10-15T17:16:17;16.40;76.30
69626;DHT22;56847;51.984;5.088;2022-10-15T17:18:45;16.40;76.20
69626;DHT22;56847;51.984;5.088;2022-10-15T17:21:17;16.30;76.40
69626;DHT22;56847;51.984;5.088;2022-10-15T17:23:44;16.30;76.40
69626;DHT22;56847;51.984;5.088;2022-10-15T17:26:15;16.30;76.30
69626;DHT22;56847;51.984;5.088;2022-10-15T17:28:44;16.30;76.30
69626;DHT22;56847;51.984;5.088;2022-10-15T17:31:14;16.30;76.30
69626;DHT22;56847;51.984;5.088;2022-10-15T17:33:42;16.20;76.20
69626;DHT22;56847;51.984;5.088;2022-10-15T17:36:12;16.20;76.30
69626;DHT22;56847;51.984;5.088;2022-10-15T17:38:42;16.20;76.20
69626;DHT22;56847;51.984;5.088;2022-10-15T17:41:15;16.10;76.20
69626;DHT22;56847;51.984;5.088;2022-10-15T17:43:44;16.10;76.30
69626;DHT22;56847;51.984;5.088;2022-10-15T17:46:13;16.10;76.40
69626;DHT22;56847;51.984;5.088;2022-10-15T17:48:41;16.10;76.30
69626;DHT22;56847;51.984;5.088;2022-10-15T17:51:11;16.10;76.30
69626;DHT22;56847;51.984;5.088;2022-10-15T17:53:42;16.10;76.40
69626;DHT22;56847;51.984;5.088;2022-10-15T17:56:18;16.10;76.40
69626;DHT22;56847;51.984;5.088;2022-10-15T17:58:48;16.10;76.50
69626;DHT22;56847;51.984;5.088;2022-10-15T18:01:24;16.20;76.50
69626;DHT22;56847;51.984;5.088;2022-10-15T18:04:11;16.20;76.40
69626;DHT22;56847;51.984;5.088;2022-10-15T18:06:42;16.30;76.30
69626;DHT22;56847;51.984;5.088;2022-10-15T18:09:22;16.30;76.10
69626;DHT22;56847;51.984;5.088;2022-10-15T18:11:49;16.30;75.70
69626;DHT22;56847;51.984;5.088;2022-10-15T18:14:17;16.30;75.60
69626;DHT22;56847;51.984;5.088;2022-10-15T18:16:44;16.30;75.60
69626;DHT22;56847;51.984;5.088;2022-10-15T18:19:11;16.20;75.70
69626;DHT22;56847;51.984;5.088;2022-10-15T18:21:38;16.30;75.80
69626;DHT22;56847;51.984;5.088;2022-10-15T18:24:06;16.30;75.80
69626;DHT22;56847;51.984;5.088;2022-10-15T18:26:33;16.30;75.60
69626;DHT22;56847;51.984;5.088;2022-10-15T18:29:00;16.30;75.60
69626;DHT22;56847;51.984;5.088;2022-10-15T18:31:30;16.30;75.60
69626;DHT22;56847;51.984;5.088;2022-10-15T18:33:59;16.30;75.60
69626;DHT22;56847;51.984;5.088;2022-10-15T18:36:35;16.30;75.50
69626;DHT22;56847;51.984;5.088;2022-10-15T18:39:03;16.30;75.40
69626;DHT22;56847;51.984;5.088;2022-10-15T18:41:31;16.30;75.30
69626;DHT22;56847;51.984;5.088;2022-10-15T18:44:11;16.30;75.20
69626;DHT22;56847;51.984;5.088;2022-10-15T18:46:39;16.30;74.90
69626;DHT22;56847;51.984;5.088;2022-10-15T18:49:07;16.40;74.90
69626;DHT22;56847;51.984;5.088;2022-10-15T18:51:38;16.40;74.80
69626;DHT22;56847;51.984;5.088;2022-10-15T18:54:05;16.50;74.80
69626;DHT22;56847;51.984;5.088;2022-10-15T18:56:34;16.50;74.80
69626;DHT22;56847;51.984;5.088;2022-10-15T18:59:04;16.50;74.80
69626;DHT22;56847;51.984;5.088;2022-10-15T19:01:39;16.60;74.40
69626;DHT22;56847;51.984;5.088;2022-10-15T19:04:13;16.60;74.40
69626;DHT22;56847;51.984;5.088;2022-10-15T19:06:46;16.60;74.50
69626;DHT22;56847;51.984;5.088;2022-10-15T19:09:16;16.60;74.40
69626;DHT22;56847;51.984;5.088;2022-10-15T19:11:44;16.60;74.20
69626;DHT22;56847;51.984;5.088;2022-10-15T19:14:12;16.70;73.90
69626;DHT22;56847;51.984;5.088;2022-10-15T19:16:42;16.60;73.90
69626;DHT22;56847;51.984;5.088;2022-10-15T19:19:11;16.70;73.80
69626;DHT22;56847;51.984;5.088;2022-10-15T19:21:42;16.70;73.80
69626;DHT22;56847;51.984;5.088;2022-10-15T19:24:09;16.70;73.70
69626;DHT22;56847;51.984;5.088;2022-10-15T19:26:36;16.70;73.60
69626;DHT22;56847;51.984;5.088;2022-10-15T19:29:04;16.70;73.30
69626;DHT22;56847;51.984;5.088;2022-10-15T19:31:38;16.70;73.00
69626;DHT22;56847;51.984;5.088;2022-10-15T19:34:05;16.70;73.10
69626;DHT22;56847;51.984;5.088;2022-10-15T19:36:35;16.70;73.10
69626;DHT22;56847;51.984;5.088;2022-10-15T19:39:06;16.70;72.90
69626;DHT22;56847;51.984;5.088;2022-10-15T19:41:42;16.70;72.70
69626;DHT22;56847;51.984;5.088;2022-10-15T19:44:10;16.70;72.80
69626;DHT22;56847;51.984;5.088;2022-10-15T19:46:39;16.80;72.80
69626;DHT22;56847;51.984;5.088;2022-10-15T19:49:09;16.80;72.60
69626;DHT22;56847;51.984;5.088;2022-10-15T19:51:37;16.80;72.60
69626;DHT22;56847;51.984;5.088;2022-10-15T19:54:05;16.80;72.50
69626;DHT22;56847;51.984;5.088;2022-10-15T19:56:32;16.80;72.40
69626;DHT22;56847;51.984;5.088;2022-10-15T19:59:02;16.80;72.40
69626;DHT22;56847;51.984;5.088;2022-10-15T20:01:30;16.80;72.40
69626;DHT22;56847;51.984;5.088;2022-10-15T20:04:01;16.80;72.10
69626;DHT22;56847;51.984;5.088;2022-10-15T20:06:34;16.70;72.00
69626;DHT22;56847;51.984;5.088;2022-10-15T20:09:01;16.70;72.10
69626;DHT22;56847;51.984;5.088;2022-10-15T20:11:30;16.60;72.00
69626;DHT22;56847;51.984;5.088;2022-10-15T20:13:58;16.60;72.20
69626;DHT22;56847;51.984;5.088;2022-10-15T20:16:26;16.60;72.30
69626;DHT22;56847;51.984;5.088;2022-10-15T20:19:06;16.50;72.30
69626;DHT22;56847;51.984;5.088;2022-10-15T20:21:33;16.50;72.40
69626;DHT22;56847;51.984;5.088;2022-10-15T20:24:00;16.40;72.60
69626;DHT22;56847;51.984;5.088;2022-10-15T20:26:31;16.40;72.60
69626;DHT22;56847;51.984;5.088;2022-10-15T20:28:58;16.30;72.80
69626;DHT22;56847;51.984;5.088;2022-10-15T20:31:25;16.30;72.90
69626;DHT22;56847;51.984;5.088;2022-10-15T20:33:57;16.30;72.90
69626;DHT22;56847;51.984;5.088;2022-10-15T20:36:26;16.30;73.00
69626;DHT22;56847;51.984;5.088;2022-10-15T20:38:54;16.20;73.10
69626;DHT22;56847;51.984;5.088;2022-10-15T20:41:23;16.20;73.20
69626;DHT22;56847;51.984;5.088;2022-10-15T20:43:53;16.20;73.20
69626;DHT22;56847;51.984;5.088;2022-10-15T20:46:26;16.20;73.30
69626;DHT22;56847;51.984;5.088;2022-10-15T20:48:56;16.20;73.30
69626;DHT22;56847;51.984;5.088;2022-10-15T20:51:26;16.20;73.40
69626;DHT22;56847;51.984;5.088;2022-10-15T20:53:57;16.30;73.40
69626;DHT22;56847;51.984;5.088;2022-10-15T20:56:24;16.30;73.40
69626;DHT22;56847;51.984;5.088;2022-10-15T20:58:51;16.30;73.30
69626;DHT22;56847;51.984;5.088;2022-10-15T21:01:19;16.30;73.20
69626;DHT22;56847;51.984;5.088;2022-10-15T21:03:46;16.30;73.40
69626;DHT22;56847;51.984;5.088;2022-10-15T21:06:13;16.30;73.30
69626;DHT22;56847;51.984;5.088;2022-10-15T21:08:40;16.30;73.40
69626;DHT22;56847;51.984;5.088;2022-10-15T21:11:08;16.30;73.30
69626;DHT22;56847;51.984;5.088;2022-10-15T21:13:35;16.30;73.20
69626;DHT22;56847;51.984;5.088;2022-10-15T21:16:04;16.30;73.30
69626;DHT22;56847;51.984;5.088;2022-10-15T21:18:33;16.30;73.30
69626;DHT22;56847;51.984;5.088;2022-10-15T21:21:02;16.30;73.30
69626;DHT22;56847;51.984;5.088;2022-10-15T21:23:30;16.40;73.30
69626;DHT22;56847;51.984;5.088;2022-10-15T21:26:03;16.30;73.40
69626;DHT22;56847;51.984;5.088;2022-10-15T21:28:30;16.30;73.30
69626;DHT22;56847;51.984;5.088;2022-10-15T21:30:57;16.30;73.30
69626;DHT22;56847;51.984;5.088;2022-10-15T21:33:25;16.30;73.30
69626;DHT22;56847;51.984;5.088;2022-10-15T21:35:52;16.30;73.30
69626;DHT22;56847;51.984;5.088;2022-10-15T21:38:19;16.30;73.30
69626;DHT22;56847;51.984;5.088;2022-10-15T21:40:48;16.30;73.40
69626;DHT22;56847;51.984;5.088;2022-10-15T21:43:16;16.30;73.30
69626;DHT22;56847;51.984;5.088;2022-10-15T21:45:43;16.30;73.40
69626;DHT22;56847;51.984;5.088;2022-10-15T21:48:10;16.30;73.30
69626;DHT22;56847;51.984;5.088;2022-10-15T21:50:37;16.30;73.30
69626;DHT22;56847;51.984;5.088;2022-10-15T21:53:04;16.30;73.30
69626;DHT22;56847;51.984;5.088;2022-10-15T21:55:31;16.30;73.20
69626;DHT22;56847;51.984;5.088;2022-10-15T21:57:58;16.30;73.20
69626;DHT22;56847;51.984;5.088;2022-10-15T22:00:29;16.30;73.20
69626;DHT22;56847;51.984;5.088;2022-10-15T22:02:56;16.30;73.20
69626;DHT22;56847;51.984;5.088;2022-10-15T22:05:23;16.30;73.10
69626;DHT22;56847;51.984;5.088;2022-10-15T22:07:50;16.30;73.00
69626;DHT22;56847;51.984;5.088;2022-10-15T22:10:17;16.30;73.00
69626;DHT22;56847;51.984;5.088;2022-10-15T22:12:49;16.30;72.80
69626;DHT22;56847;51.984;5.088;2022-10-15T22:15:17;16.30;72.90
69626;DHT22;56847;51.984;5.088;2022-10-15T22:17:43;16.30;72.80
69626;DHT22;56847;51.984;5.088;2022-10-15T22:20:10;16.20;72.90
69626;DHT22;56847;51.984;5.088;2022-10-15T22:22:37;16.20;72.80
69626;DHT22;56847;51.984;5.088;2022-10-15T22:25:04;16.20;72.90
69626;DHT22;56847;51.984;5.088;2022-10-15T22:27:31;16.20;72.80